createdAt,value
2019-02-26T00:01:06.327Z,2.30
2019-02-26T00:03:35.693Z,2.30
2019-02-26T00:06:05.166Z,2.20
2019-02-26T00:08:34.699Z,2.10
2019-02-26T00:11:06.072Z,2.10
2019-02-26T00:13:36.559Z,2.20
2019-02-26T00:16:08.010Z,2.10
2019-02-26T00:18:37.436Z,2.10
2019-02-26T00:21:06.977Z,2.10
2019-02-26T00:23:36.447Z,2.10
2019-02-26T00:26:05.929Z,2.20
2019-02-26T00:28:36.601Z,2.10
2019-02-26T00:31:06.551Z,2.10
2019-02-26T00:33:36.078Z,2.10
2019-02-26T00:36:07.136Z,2.10
2019-02-26T00:38:37.737Z,2.20
2019-02-26T00:41:07.801Z,2.40
2019-02-26T00:43:37.206Z,2.40
2019-02-26T00:46:08.577Z,2.40
2019-02-26T00:48:40.599Z,2.50
2019-02-26T00:51:09.197Z,2.40
2019-02-26T00:53:38.560Z,2.30
2019-02-26T00:56:10.273Z,2.30
2019-02-26T00:58:41.068Z,2.40
2019-02-26T01:01:12.424Z,2.30
2019-02-26T01:03:43.083Z,2.00
2019-02-26T01:06:12.591Z,1.70
2019-02-26T01:08:43.098Z,1.60
2019-02-26T01:11:13.232Z,1.50
2019-02-26T01:13:42.770Z,1.40
2019-02-26T01:16:12.311Z,1.30
2019-02-26T01:18:42.197Z,1.20
2019-02-26T01:21:12.981Z,1.10
2019-02-26T01:23:42.504Z,1.00
2019-02-26T01:26:12.534Z,0.90
2019-02-26T01:28:44.142Z,0.80
2019-02-26T01:31:13.469Z,0.80
2019-02-26T01:33:42.905Z,0.80
2019-02-26T01:36:13.923Z,0.90
2019-02-26T01:38:45.873Z,1.30
2019-02-26T01:41:15.567Z,1.80
2019-02-26T01:43:45.538Z,2.00
2019-02-26T01:46:16.915Z,2.00
2019-02-26T01:48:46.006Z,2.00
2019-02-26T01:51:17.104Z,2.10
2019-02-26T01:53:49.071Z,2.00
2019-02-26T01:56:20.048Z,1.90
2019-02-26T01:58:56.352Z,1.90
2019-02-26T02:01:23.880Z,1.90
2019-02-26T02:03:55.842Z,1.90
2019-02-26T02:06:24.093Z,1.90
2019-02-26T02:08:55.496Z,1.80
2019-02-26T02:11:28.271Z,1.30
2019-02-26T02:13:55.764Z,1.10
2019-02-26T02:16:28.551Z,1.10
2019-02-26T02:18:58.183Z,1.00
2019-02-26T02:21:30.896Z,1.00
2019-02-26T02:23:59.383Z,0.90
2019-02-26T02:26:28.982Z,0.80
2019-02-26T02:28:58.378Z,0.70
2019-02-26T02:31:31.403Z,0.60
2019-02-26T02:33:59.331Z,0.60
2019-02-26T02:36:28.788Z,0.40
2019-02-26T02:38:58.392Z,0.30
2019-02-26T02:41:27.804Z,0.10
2019-02-26T02:43:57.409Z,0.00
2019-02-26T02:46:26.848Z,0.00
2019-02-26T02:48:56.300Z,0.00
2019-02-26T02:51:27.717Z,0.10
2019-02-26T02:53:59.227Z,0.20
2019-02-26T02:56:28.086Z,0.20
2019-02-26T02:58:57.490Z,0.40
2019-02-26T03:01:28.673Z,0.40
2019-02-26T03:04:00.548Z,0.40
2019-02-26T03:06:30.566Z,0.40
2019-02-26T03:09:00.631Z,0.50
2019-02-26T03:11:30.112Z,0.40
2019-02-26T03:13:59.518Z,0.40
2019-02-26T03:16:29.128Z,0.40
2019-02-26T03:18:58.550Z,0.60
2019-02-26T03:21:30.512Z,0.80
2019-02-26T03:24:00.866Z,0.80
2019-02-26T03:26:30.230Z,0.70
2019-02-26T03:28:59.720Z,0.60
2019-02-26T03:31:34.294Z,0.50
2019-02-26T03:34:08.617Z,0.40
2019-02-26T03:36:34.250Z,0.50
2019-02-26T03:39:03.669Z,0.70
2019-02-26T03:41:33.499Z,0.80
2019-02-26T03:44:03.937Z,0.80
2019-02-26T03:46:34.001Z,0.70
2019-02-26T03:49:03.662Z,0.60
2019-02-26T03:51:33.201Z,0.40
2019-02-26T03:54:04.154Z,0.40
2019-02-26T03:56:33.759Z,0.30
2019-02-26T03:59:06.316Z,0.50
2019-02-26T04:01:34.734Z,0.60
2019-02-26T04:04:07.688Z,0.60
2019-02-26T04:06:38.950Z,0.50
2019-02-26T04:09:09.156Z,0.60
2019-02-26T04:11:44.775Z,0.80
2019-02-26T04:14:12.581Z,0.80
2019-02-26T04:16:43.654Z,0.80
2019-02-26T04:19:14.475Z,0.80
2019-02-26T04:22:23.349Z,0.80
2019-02-26T04:24:55.052Z,0.70
2019-02-26T04:27:49.021Z,0.50
2019-02-26T04:30:41.716Z,0.30
2019-02-26T04:33:21.696Z,0.20
2019-02-26T04:36:20.442Z,0.20
2019-02-26T04:39:13.648Z,0.20
2019-02-26T04:41:48.002Z,0.20
2019-02-26T04:44:34.284Z,0.20
2019-02-26T04:47:05.869Z,0.60
2019-02-26T04:49:38.378Z,0.70
2019-02-26T04:52:10.330Z,0.80
2019-02-26T04:54:39.531Z,0.80
2019-02-26T04:57:08.781Z,0.70
2019-02-26T04:59:41.184Z,0.60
2019-02-26T05:02:09.457Z,0.30
2019-02-26T05:04:40.059Z,0.10
2019-02-26T05:07:13.216Z,0.10
2019-02-26T05:09:41.355Z,0.10
2019-02-26T05:12:10.898Z,0.10
2019-02-26T05:14:40.262Z,0.20
2019-02-26T05:17:09.698Z,0.20
2019-02-26T05:19:39.510Z,0.20
2019-02-26T05:22:10.259Z,0.20
2019-02-26T05:24:42.438Z,0.10
2019-02-26T05:27:19.746Z,0.00
2019-02-26T05:29:49.743Z,-0.10
2019-02-26T05:32:21.795Z,-0.10
2019-02-26T05:34:50.919Z,0.10
2019-02-26T05:37:20.503Z,0.20
2019-02-26T05:39:51.558Z,0.00
2019-02-26T05:42:21.070Z,-0.30
2019-02-26T05:44:53.831Z,-0.40
2019-02-26T05:47:23.934Z,-0.30
2019-02-26T05:49:52.612Z,-0.50
2019-02-26T05:52:24.352Z,-0.60
2019-02-26T05:54:53.236Z,-0.60
2019-02-26T05:57:31.278Z,-0.70
2019-02-26T05:59:55.429Z,-0.80
2019-02-26T06:02:25.074Z,-1.00
2019-02-26T06:04:54.557Z,-1.00
2019-02-26T06:07:27.448Z,-0.90
2019-02-26T06:09:56.375Z,-0.70
2019-02-26T06:12:26.307Z,-0.60
2019-02-26T06:15:00.285Z,-0.50
2019-02-26T06:17:27.472Z,-0.30
2019-02-26T06:20:02.083Z,-0.10
2019-02-26T06:22:31.877Z,-0.10
2019-02-26T06:25:07.054Z,-0.20
2019-02-26T06:27:33.211Z,0.00
2019-02-26T06:30:05.942Z,0.10
2019-02-26T06:32:36.707Z,0.10
2019-02-26T06:35:10.845Z,-0.10
2019-02-26T06:37:40.298Z,-0.20
2019-02-26T06:40:12.756Z,-0.20
2019-02-26T06:42:42.206Z,-0.20
2019-02-26T06:45:16.005Z,-0.20
2019-02-26T06:47:45.749Z,-0.20
2019-02-26T06:50:18.738Z,-0.10
2019-02-26T06:52:48.587Z,-0.10
2019-02-26T06:55:18.475Z,-0.10
2019-02-26T06:57:50.890Z,-0.10
2019-02-26T07:00:23.787Z,-0.10
2019-02-26T07:02:51.777Z,0.20
2019-02-26T07:05:23.931Z,0.20
2019-02-26T07:07:54.161Z,0.10
2019-02-26T07:10:26.121Z,0.10
2019-02-26T07:12:54.534Z,0.30
2019-02-26T07:15:24.017Z,0.50
2019-02-26T07:17:53.452Z,0.30
2019-02-26T07:20:22.945Z,0.30
2019-02-26T07:22:52.377Z,0.40
2019-02-26T07:25:21.783Z,0.50
2019-02-26T07:27:51.749Z,0.70
2019-02-26T07:30:22.247Z,0.80
2019-02-26T07:32:51.633Z,0.90
2019-02-26T07:35:21.140Z,1.20
2019-02-26T07:37:52.262Z,1.20
2019-02-26T07:40:21.831Z,1.20
2019-02-26T07:42:52.467Z,1.20
2019-02-26T07:45:22.882Z,1.30
2019-02-26T07:47:55.475Z,1.30
2019-02-26T07:50:24.225Z,1.20
2019-02-26T07:52:55.263Z,1.50
2019-02-26T07:55:24.696Z,1.80
2019-02-26T07:57:54.636Z,1.90
2019-02-26T08:00:24.765Z,2.10
2019-02-26T08:02:57.860Z,2.20
2019-02-26T08:05:28.334Z,2.30
2019-02-26T08:07:56.686Z,2.40
2019-02-26T08:10:26.204Z,2.60
2019-02-26T08:12:56.660Z,2.70
2019-02-26T08:15:27.868Z,2.80
2019-02-26T08:18:00.398Z,3.00
2019-02-26T08:20:30.432Z,3.10
2019-02-26T08:23:01.373Z,3.40
2019-02-26T08:25:30.998Z,3.70
2019-02-26T08:28:01.324Z,3.80
2019-02-26T08:30:30.940Z,3.80
2019-02-26T08:33:04.692Z,3.80
2019-02-26T08:35:33.114Z,4.00
2019-02-26T08:38:05.670Z,4.10
2019-02-26T08:40:33.728Z,4.20
2019-02-26T08:43:03.401Z,4.30
2019-02-26T08:45:33.051Z,4.30
2019-02-26T08:48:02.498Z,4.50
2019-02-26T08:50:33.315Z,4.60
2019-02-26T08:53:03.323Z,4.80
2019-02-26T08:55:32.788Z,5.00
2019-02-26T08:58:02.215Z,5.40
2019-02-26T09:00:31.738Z,5.60
2019-02-26T09:03:01.246Z,5.80
2019-02-26T09:05:34.005Z,6.10
2019-02-26T09:08:01.822Z,6.30
2019-02-26T09:10:31.702Z,6.50
2019-02-26T09:13:01.140Z,6.70
2019-02-26T09:15:31.287Z,6.80
2019-02-26T09:18:01.925Z,6.90
2019-02-26T09:20:31.392Z,7.00
2019-02-26T09:23:01.481Z,7.20
2019-02-26T09:25:31.587Z,7.30
2019-02-26T09:28:02.321Z,7.30
2019-02-26T09:30:33.520Z,7.50
2019-02-26T09:33:03.431Z,7.60
2019-02-26T09:35:34.168Z,7.80
2019-02-26T09:38:03.706Z,7.90
2019-02-26T09:40:34.420Z,7.90
2019-02-26T09:43:06.057Z,8.20
2019-02-26T09:45:35.453Z,8.20
2019-02-26T09:48:04.960Z,8.20
2019-02-26T09:50:36.727Z,8.70
2019-02-26T09:53:05.892Z,8.90
2019-02-26T09:55:35.351Z,9.10
2019-02-26T09:58:04.848Z,9.30
2019-02-26T10:00:34.395Z,9.50
2019-02-26T10:03:06.161Z,9.70
2019-02-26T10:05:36.996Z,9.80
2019-02-26T10:08:06.439Z,9.90
2019-02-26T10:10:37.534Z,9.90
2019-02-26T10:13:07.057Z,10.10
2019-02-26T10:15:39.323Z,10.10
2019-02-26T10:18:09.300Z,10.20
2019-02-26T10:20:42.709Z,10.40
2019-02-26T10:23:11.799Z,10.40
2019-02-26T10:25:41.311Z,10.60
2019-02-26T10:28:11.720Z,10.70
2019-02-26T10:30:41.870Z,10.80
2019-02-26T10:33:11.443Z,11.00
2019-02-26T10:35:44.369Z,11.20
2019-02-26T10:38:12.228Z,11.40
2019-02-26T10:40:53.275Z,11.50
2019-02-26T10:43:12.945Z,11.60
2019-02-26T10:45:44.792Z,11.80
2019-02-26T10:48:15.967Z,11.90
2019-02-26T10:50:48.285Z,12.00
2019-02-26T10:53:17.265Z,12.20
2019-02-26T10:55:47.077Z,12.30
2019-02-26T10:58:16.505Z,12.60
2019-02-26T11:00:46.863Z,12.70
2019-02-26T11:03:17.324Z,12.80
2019-02-26T11:05:48.530Z,13.10
2019-02-26T11:08:20.797Z,13.20
2019-02-26T11:10:52.214Z,13.30
2019-02-26T11:13:24.906Z,13.40
2019-02-26T11:15:53.986Z,13.60
2019-02-26T11:18:23.703Z,13.80
2019-02-26T11:20:56.141Z,14.00
2019-02-26T11:23:30.940Z,14.00
2019-02-26T11:25:55.882Z,14.10
2019-02-26T11:28:29.710Z,14.30
2019-02-26T11:30:56.745Z,14.30
2019-02-26T11:33:26.294Z,14.60
2019-02-26T11:35:56.842Z,14.70
2019-02-26T11:38:26.258Z,14.80
2019-02-26T11:40:55.782Z,14.80
2019-02-26T11:43:27.127Z,15.00
2019-02-26T11:45:58.868Z,15.20
2019-02-26T11:48:29.062Z,15.40
2019-02-26T11:51:00.803Z,15.50
2019-02-26T11:53:30.373Z,15.80
2019-02-26T11:56:01.866Z,15.80
2019-02-26T11:58:31.434Z,15.80
2019-02-26T12:01:00.943Z,16.20
2019-02-26T12:03:33.355Z,16.50
2019-02-26T12:06:02.225Z,16.30
2019-02-26T12:08:31.994Z,16.40
2019-02-26T12:11:03.996Z,16.40
2019-02-26T12:13:32.584Z,16.30
2019-02-26T12:16:01.976Z,16.50
2019-02-26T12:18:31.452Z,16.40
2019-02-26T12:21:03.465Z,16.50
2019-02-26T12:23:32.014Z,16.80
2019-02-26T12:26:03.785Z,16.90
2019-02-26T12:28:35.926Z,17.10
2019-02-26T12:31:07.049Z,17.30
2019-02-26T12:33:35.472Z,17.00
2019-02-26T12:36:07.541Z,17.00
2019-02-26T12:38:37.709Z,17.10
2019-02-26T12:41:09.000Z,17.40
2019-02-26T12:43:42.634Z,17.30
2019-02-26T12:46:09.495Z,17.60
2019-02-26T12:48:41.794Z,17.70
2019-02-26T12:51:10.033Z,17.50
2019-02-26T12:56:20.563Z,18.00
2019-02-26T12:58:52.019Z,18.20
2019-02-26T13:01:21.801Z,18.40
2019-02-26T13:03:54.793Z,18.70
2019-02-26T13:06:23.032Z,18.50
2019-02-26T13:08:52.547Z,18.60
2019-02-26T13:11:25.081Z,18.60
2019-02-26T13:13:54.615Z,18.70
2019-02-26T13:16:24.095Z,18.80
2019-02-26T13:18:59.499Z,18.80
2019-02-26T13:21:24.714Z,18.90
2019-02-26T13:23:58.775Z,18.60
2019-02-26T13:26:25.447Z,18.80
2019-02-26T13:28:56.079Z,18.90
2019-02-26T13:31:26.104Z,18.60
2019-02-26T13:33:55.568Z,18.50
2019-02-26T13:36:25.138Z,18.80
2019-02-26T13:38:54.526Z,18.60
2019-02-26T13:41:30.103Z,18.90
2019-02-26T13:43:55.229Z,19.10
2019-02-26T13:46:24.853Z,19.60
2019-02-26T13:48:54.227Z,19.10
2019-02-26T13:51:23.699Z,19.00
2019-02-26T13:53:53.146Z,18.60
2019-02-26T13:56:22.864Z,18.40
2019-02-26T13:58:52.387Z,18.00
2019-02-26T14:01:21.933Z,17.70
2019-02-26T14:03:51.460Z,17.60
2019-02-26T14:06:21.038Z,17.90
2019-02-26T14:08:50.490Z,17.80
2019-02-26T14:11:20.043Z,17.90
2019-02-26T14:13:49.475Z,18.20
2019-02-26T14:16:19.061Z,18.40
2019-02-26T14:18:48.503Z,18.70
2019-02-26T14:21:18.118Z,18.90
2019-02-26T14:23:47.600Z,19.10
2019-02-26T14:26:17.184Z,19.30
2019-02-26T14:28:46.585Z,19.80
2019-02-26T14:31:16.079Z,19.30
2019-02-26T14:33:47.059Z,19.30
2019-02-26T14:36:16.467Z,19.50
2019-02-26T14:38:45.915Z,19.40
2019-02-26T14:41:15.372Z,18.90
2019-02-26T14:43:44.989Z,18.80
2019-02-26T14:46:14.475Z,19.10
2019-02-26T14:48:43.918Z,19.50
2019-02-26T14:51:13.385Z,19.50
2019-02-26T14:53:42.910Z,19.60
2019-02-26T14:56:12.678Z,19.80
2019-02-26T14:58:42.191Z,19.70
2019-02-26T15:01:11.677Z,19.90
2019-02-26T15:03:41.131Z,20.30
2019-02-26T15:06:10.972Z,20.30
2019-02-26T15:08:41.320Z,20.30
2019-02-26T15:11:11.110Z,20.50
2019-02-26T15:13:40.535Z,20.40
2019-02-26T15:16:10.404Z,20.30
2019-02-26T15:18:39.814Z,20.80
2019-02-26T15:21:09.289Z,20.70
2019-02-26T15:23:38.767Z,20.50
2019-02-26T15:26:08.751Z,21.00
2019-02-26T15:28:38.370Z,20.80
2019-02-26T15:31:08.571Z,20.70
2019-02-26T15:33:38.189Z,20.50
2019-02-26T15:36:09.445Z,20.60
2019-02-26T15:38:38.950Z,20.60
2019-02-26T15:41:08.663Z,20.50
2019-02-26T15:43:38.206Z,20.60
2019-02-26T15:46:07.703Z,20.90
2019-02-26T15:48:37.303Z,20.50
2019-02-26T15:51:14.085Z,20.60
2019-02-26T15:53:37.834Z,20.70
2019-02-26T15:56:07.322Z,20.70
2019-02-26T15:58:36.789Z,20.60
2019-02-26T16:01:08.910Z,20.60
2019-02-26T16:03:38.540Z,20.80
2019-02-26T16:06:08.023Z,20.50
2019-02-26T16:08:38.620Z,19.90
2019-02-26T16:11:08.264Z,19.70
2019-02-26T16:13:37.699Z,19.50
2019-02-26T16:16:07.176Z,19.60
2019-02-26T16:18:36.548Z,19.00
2019-02-26T16:21:06.027Z,17.90
2019-02-26T16:23:35.465Z,17.00
2019-02-26T16:26:05.665Z,16.50
2019-02-26T16:28:36.155Z,16.10
2019-02-26T16:31:06.381Z,15.80
2019-02-26T16:33:36.745Z,15.30
2019-02-26T16:36:06.308Z,14.30
2019-02-26T16:38:35.921Z,13.70
2019-02-26T16:41:05.615Z,13.50
2019-02-26T16:43:35.163Z,13.40
2019-02-26T16:46:08.366Z,13.00
2019-02-26T16:48:36.022Z,12.50
2019-02-26T16:51:05.576Z,12.30
2019-02-26T16:53:36.585Z,12.00
2019-02-26T16:56:07.819Z,11.60
2019-02-26T16:58:37.402Z,11.00
2019-02-26T17:01:07.732Z,10.60
2019-02-26T17:03:40.447Z,10.40
2019-02-26T17:06:09.923Z,10.30
2019-02-26T17:08:40.881Z,10.20
2019-02-26T17:11:13.351Z,10.20
2019-02-26T17:13:44.176Z,9.90
2019-02-26T17:16:13.720Z,10.00
2019-02-26T17:18:43.406Z,9.70
2019-02-26T17:21:12.992Z,9.60
2019-02-26T17:23:44.845Z,9.40
2019-02-26T17:26:13.677Z,9.20
2019-02-26T17:28:44.142Z,9.00
2019-02-26T17:31:13.671Z,8.80
2019-02-26T17:33:44.749Z,8.70
2019-02-26T17:36:14.436Z,8.70
2019-02-26T17:38:43.867Z,8.50
2019-02-26T17:41:13.411Z,8.30
2019-02-26T17:43:42.778Z,8.30
2019-02-26T17:46:12.284Z,8.10
2019-02-26T17:48:43.736Z,8.10
2019-02-26T17:51:12.964Z,8.00
2019-02-26T17:53:42.339Z,7.80
2019-02-26T17:56:12.331Z,7.70
2019-02-26T17:58:43.860Z,7.70
2019-02-26T18:01:12.866Z,7.50
2019-02-26T18:03:44.407Z,7.30
2019-02-26T18:06:13.323Z,7.20
2019-02-26T18:08:42.682Z,7.20
2019-02-26T18:11:12.086Z,7.10
2019-02-26T18:13:41.591Z,7.10
2019-02-26T18:16:11.137Z,7.00
2019-02-26T18:18:40.504Z,6.80
2019-02-26T18:21:09.989Z,6.70
2019-02-26T18:23:39.565Z,6.70
2019-02-26T18:26:09.359Z,6.70
2019-02-26T18:28:38.724Z,6.70
2019-02-26T18:31:08.259Z,6.80
2019-02-26T18:33:37.645Z,6.80
2019-02-26T18:36:07.175Z,6.60
2019-02-26T18:38:36.534Z,6.40
2019-02-26T18:41:06.079Z,6.40
2019-02-26T18:43:35.450Z,6.40
2019-02-26T18:46:05.206Z,6.60
2019-02-26T18:48:34.838Z,6.70
2019-02-26T18:51:04.305Z,6.70
2019-02-26T18:53:33.660Z,6.80
2019-02-26T18:56:04.197Z,6.90
2019-02-26T18:58:34.471Z,6.80
2019-02-26T19:01:04.000Z,6.60
2019-02-26T19:03:33.568Z,6.40
2019-02-26T19:06:03.601Z,6.10
2019-02-26T19:08:34.645Z,6.00
2019-02-26T19:11:04.481Z,5.90
2019-02-26T19:13:35.583Z,5.80
2019-02-26T19:16:05.264Z,5.80
2019-02-26T19:18:38.481Z,5.80
2019-02-26T19:21:07.984Z,5.70
2019-02-26T19:23:37.433Z,5.70
2019-02-26T19:26:06.983Z,5.60
2019-02-26T19:28:36.380Z,5.50
2019-02-26T19:31:09.369Z,5.50
2019-02-26T19:33:37.786Z,5.40
2019-02-26T19:36:07.340Z,5.40
2019-02-26T19:38:36.792Z,5.50
2019-02-26T19:41:12.669Z,5.60
2019-02-26T19:43:44.271Z,5.60
2019-02-26T19:46:16.863Z,5.60
2019-02-26T19:48:44.810Z,5.60
2019-02-26T19:51:14.453Z,5.60
2019-02-26T19:53:43.963Z,5.50
2019-02-26T19:56:13.397Z,5.50
2019-02-26T19:58:42.803Z,5.40
2019-02-26T20:01:12.254Z,5.30
2019-02-26T20:03:41.795Z,5.20
2019-02-26T20:06:11.170Z,4.90
2019-02-26T20:08:40.634Z,4.70
2019-02-26T20:11:09.991Z,4.50
2019-02-26T20:13:42.160Z,4.50
2019-02-26T20:16:10.580Z,4.40
2019-02-26T20:18:40.131Z,4.30
2019-02-26T20:21:09.516Z,4.20
2019-02-26T20:23:41.810Z,4.10
2019-02-26T20:26:10.120Z,4.00
2019-02-26T20:28:41.003Z,3.90
2019-02-26T20:31:10.459Z,4.00
2019-02-26T20:33:39.856Z,4.00
2019-02-26T20:36:09.579Z,4.10
2019-02-26T20:38:39.796Z,4.30
2019-02-26T20:41:09.264Z,4.30
2019-02-26T20:43:38.624Z,4.20
2019-02-26T20:46:08.050Z,4.20
2019-02-26T20:48:37.794Z,4.20
2019-02-26T20:51:07.408Z,4.10
2019-02-26T20:53:38.999Z,4.00
2019-02-26T20:56:07.980Z,3.70
2019-02-26T20:58:37.416Z,3.70
2019-02-26T21:01:07.099Z,3.70
2019-02-26T21:03:36.455Z,3.60
2019-02-26T21:06:05.859Z,3.70
2019-02-26T21:08:35.364Z,4.00
2019-02-26T21:11:04.847Z,4.10
2019-02-26T21:13:35.742Z,4.00
2019-02-26T21:16:05.142Z,4.00
2019-02-26T21:18:34.509Z,3.90
2019-02-26T21:21:04.050Z,3.90
2019-02-26T21:23:33.607Z,3.90
2019-02-26T21:26:03.033Z,3.80
2019-02-26T21:28:33.742Z,3.80
2019-02-26T21:31:03.845Z,3.80
2019-02-26T21:33:33.323Z,3.80
2019-02-26T21:36:02.765Z,3.80
2019-02-26T21:38:33.777Z,3.70
2019-02-26T21:41:03.134Z,3.70
2019-02-26T21:43:34.726Z,3.60
2019-02-26T21:46:03.673Z,3.60
2019-02-26T21:48:36.549Z,3.50
2019-02-26T21:51:04.482Z,3.50
2019-02-26T21:53:33.955Z,3.50
2019-02-26T21:56:03.398Z,3.50
2019-02-26T21:58:32.808Z,3.40
2019-02-26T22:01:02.278Z,3.40
2019-02-26T22:03:31.669Z,3.30
2019-02-26T22:06:05.240Z,3.20
2019-02-26T22:08:32.186Z,3.20
2019-02-26T22:11:01.597Z,3.10
2019-02-26T22:13:31.107Z,3.00
2019-02-26T22:16:00.682Z,2.90
2019-02-26T22:18:34.023Z,3.10
2019-02-26T22:21:01.254Z,3.20
2019-02-26T22:23:34.020Z,3.20
2019-02-26T22:26:01.962Z,3.20
2019-02-26T22:28:31.437Z,3.30
2019-02-26T22:31:00.906Z,3.30
2019-02-26T22:33:30.387Z,3.20
2019-02-26T22:36:00.265Z,3.10
2019-02-26T22:38:29.816Z,3.10
2019-02-26T22:41:02.250Z,3.10
2019-02-26T22:43:30.999Z,3.20
2019-02-26T22:46:00.989Z,3.10
2019-02-26T22:48:31.183Z,2.90
2019-02-26T22:51:00.588Z,2.80
2019-02-26T22:53:30.223Z,2.90
2019-02-26T22:55:59.627Z,2.80
2019-02-26T22:58:29.178Z,2.70
2019-02-26T23:01:03.213Z,2.60
2019-02-26T23:03:32.725Z,2.70
2019-02-26T23:06:02.629Z,2.80
2019-02-26T23:08:32.836Z,2.90
2019-02-26T23:11:05.362Z,2.90
2019-02-26T23:13:36.439Z,2.90
2019-02-26T23:16:06.087Z,2.90
2019-02-26T23:18:35.691Z,3.00
2019-02-26T23:21:06.218Z,3.00
2019-02-26T23:23:35.687Z,3.10
2019-02-26T23:26:08.628Z,3.20
2019-02-26T23:28:36.935Z,3.20
2019-02-26T23:31:07.443Z,3.30
2019-02-26T23:33:37.048Z,3.50
2019-02-26T23:36:06.419Z,3.50
2019-02-26T23:38:35.958Z,3.70
2019-02-26T23:41:05.482Z,3.80
2019-02-26T23:43:34.952Z,4.00
2019-02-26T23:46:05.734Z,4.20
2019-02-26T23:48:35.287Z,4.40
2019-02-26T23:51:04.789Z,4.40
2019-02-26T23:53:34.651Z,4.50
2019-02-26T23:56:04.239Z,4.60
2019-02-26T23:58:33.642Z,4.60
